Time;durP1;ratioP1;P1;durP2;ratioP2;P2;SDS_P1;SDS_P2;PMS_P1;PMS_P2;Temp;Humidity;BMP_temperature;BMP_pressure;BME280_temperature;BME280_humidity;BME280_pressure;Samples;Min_cycle;Max_cycle;Signal;HPM_P1;HPM_P2
2022/02/14 00:01:15;;;;;;;;;;;;;;;17.03;56.38;99824.88;4970182;28;19914;-81
2022/02/14 00:03:41;;;;;;;;;;;;;;;17.05;56.29;99822.25;5003797;28;19910;-81
2022/02/14 00:06:08;;;;;;;;;;;;;;;17.03;56.19;99806.66;4985610;28;19933;-81
2022/02/14 00:08:36;;;;;;;;;;;;;;;17.04;56.22;99807.50;4974101;28;19976;-81
2022/02/14 00:11:03;;;;;;;;;;;;;;;17.03;56.16;99805.81;4966070;28;19917;-80
2022/02/14 00:13:31;;;;;;;;;;;;;;;17.03;56.38;99806.66;4965802;28;19910;-81
2022/02/14 00:15:58;;;;;;;;;;;;;;;17.04;56.11;99808.38;4966050;28;19945;-80
2022/02/14 00:18:23;;;;;;;;;;;;;;;17.04;56.40;99810.97;4965616;28;19914;-81
2022/02/14 00:20:49;;;;;;;;;;;;;;;17.04;55.94;99803.16;4980121;28;19916;-81
2022/02/14 00:23:16;;;;;;;;;;;;;;;17.04;56.06;99802.31;4980234;28;19910;-81
2022/02/14 00:25:41;;;;;;;;;;;;;;;17.03;56.11;99804.06;4983338;28;19909;-81
2022/02/14 00:28:07;;;;;;;;;;;;;;;17.04;55.88;99789.31;4981237;28;19929;-81
2022/02/14 00:30:32;;;;;;;;;;;;;;;17.04;55.96;99789.31;4996645;28;19917;-81
2022/02/14 00:32:59;;;;;;;;;;;;;;;17.04;55.71;99784.13;4990131;28;19905;-82
2022/02/14 00:35:26;;;;;;;;;;;;;;;17.04;56.00;99776.31;4989120;28;20007;-81
2022/02/14 00:37:53;;;;;;;;;;;;;;;17.03;55.83;99767.69;4988419;28;19985;-81
2022/02/14 00:40:20;;;;;;;;;;;;;;;17.04;55.88;99766.78;5005135;28;19917;-82
2022/02/14 00:42:48;;;;;;;;;;;;;;;17.04;56.06;99760.72;4987799;28;19913;-82
2022/02/14 00:45:14;;;;;;;;;;;;;;;17.05;55.93;99752.06;4991539;28;19894;-82
2022/02/14 00:47:40;;;;;;;;;;;;;;;17.04;56.05;99745.97;4997644;28;19894;-82
2022/02/14 00:50:08;;;;;;;;;;;;;;;17.04;55.89;99747.75;4980811;28;19926;-82
2022/02/14 00:58:42;;;;;;;;;;;;;;;17.04;56.04;99734.75;4987590;28;19977;-81
2022/02/14 01:01:08;;;;;;;;;;;;;;;17.03;55.79;99726.09;4987177;28;20288;-82
2022/02/14 01:03:41;;;;;;;;;;;;;;;17.04;55.93;99706.16;4991685;28;19910;-82
2022/02/14 01:06:07;;;;;;;;;;;;;;;17.03;55.99;99713.09;4990379;28;20004;-82
2022/02/14 01:08:34;;;;;;;;;;;;;;;17.04;55.53;99708.75;4990941;28;19917;-82
2022/02/14 01:10:59;;;;;;;;;;;;;;;17.03;55.94;99707.91;4991974;28;19910;-82
2022/02/14 01:13:26;;;;;;;;;;;;;;;17.04;55.59;99701.78;4994146;28;19910;-82
2022/02/14 01:15:58;;;;;;;;;;;;;;;17.04;55.82;99701.78;4989460;28;19910;-82
2022/02/14 01:24:31;;;;;;;;;;;;;;;17.04;55.78;99694.00;4997934;28;19977;-82
2022/02/14 01:27:03;;;;;;;;;;;;;;;17.04;55.53;99687.97;4992935;28;19917;-82
2022/02/14 01:29:31;;;;;;;;;;;;;;;17.05;55.75;99687.09;4993907;28;19924;-82
2022/02/14 01:31:57;;;;;;;;;;;;;;;17.04;55.41;99683.59;4994186;28;20000;-82
2022/02/14 01:34:25;;;;;;;;;;;;;;;17.04;55.78;99678.41;4987438;28;19921;-82
2022/02/14 01:36:51;;;;;;;;;;;;;;;17.04;55.46;99662.81;4991724;28;19920;-82
2022/02/14 01:39:28;;;;;;;;;;;;;;;17.04;55.39;99662.81;4993239;28;19925;-82
2022/02/14 01:42:01;;;;;;;;;;;;;;;17.04;55.61;99646.38;5011348;28;19921;-82
2022/02/14 01:47:45;;;;;;;;;;;;;;;17.04;55.48;99642.00;5010108;28;19985;-82
2022/02/14 01:50:13;;;;;;;;;;;;;;;17.04;55.45;99639.41;4995248;28;19988;-82
2022/02/14 01:52:41;;;;;;;;;;;;;;;17.04;55.34;99633.38;5011825;28;19909;-82
2022/02/14 02:01:21;;;;;;;;;;;;;;;17.05;55.14;99614.31;5013739;28;20423;-82
2022/02/14 02:04:07;;;;;;;;;;;;;;;17.05;55.00;99616.91;5012248;28;20382;-82
2022/02/14 02:06:34;;;;;;;;;;;;;;;17.05;55.19;99611.72;5011747;28;19976;-82
2022/02/14 02:09:17;;;;;;;;;;;;;;;17.05;55.38;99606.50;5011210;28;19944;-82
2022/02/14 02:20:35;;;;;;;;;;;;;;;17.05;55.00;99586.56;4994329;28;19917;-82
2022/02/14 02:26:45;;;;;;;;;;;;;;;17.04;55.14;99577.03;5014185;28;20376;-83
2022/02/14 02:38:45;;;;;;;;;;;;;;;17.05;54.94;99559.72;4968109;28;20009;-82
2022/02/14 02:41:16;;;;;;;;;;;;;;;17.05;54.69;99552.78;4983607;28;19909;-82
2022/02/14 02:43:59;;;;;;;;;;;;;;;17.05;55.28;99547.56;4981236;28;19914;-82
2022/02/14 02:46:25;;;;;;;;;;;;;;;17.06;55.24;99544.06;4972853;28;19917;-82
2022/02/14 02:48:53;;;;;;;;;;;;;;;17.05;54.82;99546.72;4969083;28;19921;-82
2022/02/14 02:51:20;;;;;;;;;;;;;;;17.05;54.81;99542.38;4978309;28;19910;-82
2022/02/14 02:53:51;;;;;;;;;;;;;;;17.06;55.06;99538.88;4987495;28;19941;-82
2022/02/14 02:56:24;;;;;;;;;;;;;;;17.06;54.98;99541.47;4989232;28;19920;-82
2022/02/14 02:58:50;;;;;;;;;;;;;;;17.05;54.54;99529.38;4987586;28;19990;-82
2022/02/14 03:04:50;;;;;;;;;;;;;;;17.06;54.53;99525.03;4996178;28;20010;-83
2022/02/14 03:07:38;;;;;;;;;;;;;;;17.06;54.59;99530.22;4997134;28;19916;-82
2022/02/14 03:10:27;;;;;;;;;;;;;;;17.05;54.60;99528.53;4983040;28;19914;-82
2022/02/14 03:15:58;;;;;;;;;;;;;;;17.05;54.49;99513.78;4984895;28;20020;-82
2022/02/14 03:21:28;;;;;;;;;;;;;;;17.06;54.72;99506.84;4983954;28;20383;-82
2022/02/14 03:23:59;;;;;;;;;;;;;;;17.05;54.42;99494.75;4998187;28;19910;-82
2022/02/14 03:26:46;;;;;;;;;;;;;;;17.05;54.59;99506.00;5004759;28;20383;-82
2022/02/14 03:29:24;;;;;;;;;;;;;;;17.05;54.72;99500.78;4986399;28;19917;-82
2022/02/14 03:31:52;;;;;;;;;;;;;;;17.05;54.78;99492.16;4994858;28;19914;-82
2022/02/14 03:34:26;;;;;;;;;;;;;;;17.04;54.45;99493.88;4965304;28;19914;-82
2022/02/14 03:36:53;;;;;;;;;;;;;;;17.05;54.67;99495.59;4988814;28;19969;-81
2022/02/14 03:39:19;;;;;;;;;;;;;;;17.06;54.82;99499.88;4976002;28;19909;-81
2022/02/14 03:42:03;;;;;;;;;;;;;;;17.05;54.70;99490.41;4989022;28;20428;-81
2022/02/14 03:44:31;;;;;;;;;;;;;;;17.05;54.32;99487.78;4987838;28;19932;-81
2022/02/14 03:47:13;;;;;;;;;;;;;;;17.05;54.24;99490.41;4974171;28;19910;-82
2022/02/14 03:49:53;;;;;;;;;;;;;;;17.06;54.35;99476.50;4981564;28;19914;-83
2022/02/14 03:55:24;;;;;;;;;;;;;;;17.05;54.46;99477.41;4999824;28;19959;-81
2022/02/14 03:57:58;;;;;;;;;;;;;;;17.05;54.16;99456.59;5000370;28;20375;-81
2022/02/14 04:00:31;;;;;;;;;;;;;;;17.04;54.27;99467.88;4995285;28;19921;-81
2022/02/14 04:06:23;;;;;;;;;;;;;;;17.06;54.41;99460.06;5008217;28;19933;-81
2022/02/14 04:08:56;;;;;;;;;;;;;;;17.06;54.26;99457.44;4959844;29;19978;-81
2022/02/14 04:11:42;;;;;;;;;;;;;;;17.05;54.33;99459.22;4939872;29;20376;-81
2022/02/14 04:14:15;;;;;;;;;;;;;;;17.05;54.33;99459.22;4945479;29;20010;-80
2022/02/14 04:16:40;;;;;;;;;;;;;;;17.05;54.45;99460.97;4923477;29;19911;-81
2022/02/14 04:19:12;;;;;;;;;;;;;;;17.06;54.37;99460.06;4928732;29;19988;-81
2022/02/14 04:21:38;;;;;;;;;;;;;;;17.06;54.09;99460.06;4932964;29;19914;-81
2022/02/14 04:24:05;;;;;;;;;;;;;;;17.06;54.14;99447.06;4950532;29;19911;-81
2022/02/14 04:26:52;;;;;;;;;;;;;;;17.05;54.34;99453.16;4939126;29;19960;-81
2022/02/14 04:29:18;;;;;;;;;;;;;;;17.06;54.19;99452.25;4933526;29;19943;-81
2022/02/14 04:31:43;;;;;;;;;;;;;;;17.05;54.38;99445.38;4918107;29;20021;-81
2022/02/14 04:34:09;;;;;;;;;;;;;;;17.05;54.27;99435.81;4936866;29;20465;-81
2022/02/14 04:36:35;;;;;;;;;;;;;;;17.06;54.01;99447.91;4919193;29;19922;-81
2022/02/14 04:39:03;;;;;;;;;;;;;;;17.06;54.16;99452.25;4931128;29;19915;-81
2022/02/14 04:41:31;;;;;;;;;;;;;;;17.06;54.19;99444.44;4927974;29;19911;-81
2022/02/14 04:43:56;;;;;;;;;;;;;;;17.05;53.88;99435.81;4898939;29;19939;-81
2022/02/14 04:49:25;;;;;;;;;;;;;;;17.05;54.00;99445.38;4970609;29;20368;-81
2022/02/14 04:52:09;;;;;;;;;;;;;;;17.03;54.21;99432.41;4954297;29;19898;-81
2022/02/14 05:00:12;;;;;;;;;;;;;;;17.05;53.81;99433.22;4974147;29;19971;-81
2022/02/14 05:02:39;;;;;;;;;;;;;;;17.05;54.05;99432.38;4972738;29;19914;-81
2022/02/14 05:05:06;;;;;;;;;;;;;;;17.05;54.24;99448.81;4977191;29;19914;-81
2022/02/14 05:07:50;;;;;;;;;;;;;;;17.05;54.13;99434.97;4974243;29;19916;-81
2022/02/14 05:10:18;;;;;;;;;;;;;;;17.05;53.94;99434.97;4974370;29;19938;-81
2022/02/14 05:12:49;;;;;;;;;;;;;;;17.05;53.98;99427.19;4974580;28;19910;-81
2022/02/14 05:15:20;;;;;;;;;;;;;;;17.05;54.00;99434.97;4957485;29;19914;-81
2022/02/14 05:20:58;;;;;;;;;;;;;;;17.05;53.95;99427.19;4975694;29;19914;-81
2022/02/14 05:23:28;;;;;;;;;;;;;;;17.05;54.07;99437.56;4975611;29;19966;-81
2022/02/14 05:29:03;;;;;;;;;;;;;;;17.04;54.06;99444.50;4995083;28;19995;-81
2022/02/14 05:31:30;;;;;;;;;;;;;;;17.05;54.19;99445.38;4976901;28;19929;-79
2022/02/14 05:33:56;;;;;;;;;;;;;;;17.06;53.90;99434.06;4975276;28;19910;-79
2022/02/14 05:36:41;;;;;;;;;;;;;;;17.06;53.76;99447.91;4992276;28;19910;-82
2022/02/14 05:39:11;;;;;;;;;;;;;;;17.06;54.12;99450.50;4987943;28;19946;-80
2022/02/14 05:41:37;;;;;;;;;;;;;;;17.06;53.86;99450.50;4973358;28;20322;-82
2022/02/14 05:44:04;;;;;;;;;;;;;;;17.06;54.17;99460.06;4956017;28;19914;-81
2022/02/14 05:46:31;;;;;;;;;;;;;;;17.06;54.24;99454.84;4989770;28;19938;-81
2022/02/14 05:48:57;;;;;;;;;;;;;;;17.07;53.76;99461.75;4972918;28;19910;-80
2022/02/14 05:51:23;;;;;;;;;;;;;;;17.08;53.96;99473.00;4987436;28;19997;-81
2022/02/14 05:53:55;;;;;;;;;;;;;;;17.07;53.93;99469.53;4987143;28;19932;-81
2022/02/14 05:56:20;;;;;;;;;;;;;;;17.05;53.72;99454.00;4987668;28;19910;-81
2022/02/14 06:05:20;;;;;;;;;;;;;;;17.07;53.89;99516.31;5002362;28;19929;-86
2022/02/14 06:16:27;;;;;;;;;;;;;;;17.09;54.46;99550.91;5288904;23;19921;-80
2022/02/14 06:18:52;;;;;;;;;;;;;;;17.10;54.67;99536.19;4992838;28;19921;-81
2022/02/14 06:21:17;;;;;;;;;;;;;;;17.10;54.62;99550.03;4992494;28;19913;-80
2022/02/14 06:23:43;;;;;;;;;;;;;;;17.11;54.50;99559.53;5027216;28;19920;-82
2022/02/14 06:26:09;;;;;;;;;;;;;;;17.12;54.71;99563.00;5008321;28;19937;-78
2022/02/14 06:28:38;;;;;;;;;;;;;;;17.13;54.65;99556.91;5009427;28;19964;-79
2022/02/14 06:31:05;;;;;;;;;;;;;;;17.12;54.77;99557.81;5007164;28;20320;-80
2022/02/14 06:33:30;;;;;;;;;;;;;;;17.12;54.80;99563.84;5029017;28;19996;-77
2022/02/14 06:35:55;;;;;;;;;;;;;;;17.13;54.79;99568.13;5033662;28;19905;-79
2022/02/14 06:38:20;;;;;;;;;;;;;;;17.13;54.80;99575.94;5015948;28;19921;-78
2022/02/14 06:40:46;;;;;;;;;;;;;;;17.14;55.01;99579.41;5014076;28;19920;-80
2022/02/14 06:43:11;;;;;;;;;;;;;;;17.14;54.88;99585.47;5014253;28;19971;-80
2022/02/14 06:45:36;;;;;;;;;;;;;;;17.15;54.92;99594.09;5014562;28;19914;-80
2022/02/14 06:48:01;;;;;;;;;;;;;;;17.14;55.10;99603.66;5014896;28;19913;-79
2022/02/14 06:50:27;;;;;;;;;;;;;;;17.14;54.98;99601.06;4997479;28;19920;-79
2022/02/14 06:52:52;;;;;;;;;;;;;;;17.15;54.90;99602.75;4992447;28;20319;-80
2022/02/14 06:55:17;;;;;;;;;;;;;;;17.16;55.15;99606.19;4990469;28;19913;-80
2022/02/14 06:57:43;;;;;;;;;;;;;;;17.16;55.03;99608.78;5005252;28;19972;-80
2022/02/14 07:00:10;;;;;;;;;;;;;;;17.15;54.90;99615.75;5021674;28;20322;-79
2022/02/14 07:02:35;;;;;;;;;;;;;;;17.16;55.13;99616.59;5022881;28;19996;-79
2022/02/14 07:05:01;;;;;;;;;;;;;;;17.16;55.25;99621.78;4988649;28;20384;-79
2022/02/14 07:07:26;;;;;;;;;;;;;;;17.16;55.24;99639.97;5004188;28;19914;-79
2022/02/14 07:09:51;;;;;;;;;;;;;;;17.16;55.06;99640.84;5003963;28;20340;-79
2022/02/14 07:12:16;;;;;;;;;;;;;;;17.17;55.08;99641.72;5003362;28;20007;-79
2022/02/14 07:14:42;;;;;;;;;;;;;;;17.18;55.08;99643.41;5004368;28;19909;-79
2022/02/14 07:17:07;;;;;;;;;;;;;;;17.18;54.94;99646.88;5000353;28;20336;-79
2022/02/14 07:19:32;;;;;;;;;;;;;;;17.18;55.07;99646.88;4999802;28;19913;-79
2022/02/14 07:21:57;;;;;;;;;;;;;;;17.20;55.16;99646.81;4984278;28;19996;-80
2022/02/14 07:24:23;;;;;;;;;;;;;;;17.19;54.97;99648.56;4984056;28;20311;-79
2022/02/14 07:26:48;;;;;;;;;;;;;;;17.20;55.04;99647.69;4984250;28;19963;-79
2022/02/14 07:29:13;;;;;;;;;;;;;;;17.21;55.12;99664.97;4984954;28;20295;-78
2022/02/14 07:31:38;;;;;;;;;;;;;;;17.22;55.01;99666.69;5005932;28;19909;-79
2022/02/14 07:34:04;;;;;;;;;;;;;;;17.24;54.99;99677.03;4983885;28;19920;-78
2022/02/14 07:36:29;;;;;;;;;;;;;;;17.24;54.91;99675.28;4999945;28;19959;-79
2022/02/14 07:38:54;;;;;;;;;;;;;;;17.26;54.91;99678.69;5001207;28;19936;-79
2022/02/14 07:41:20;;;;;;;;;;;;;;;17.27;54.97;99680.41;4999391;28;20391;-79
2022/02/14 07:43:48;;;;;;;;;;;;;;;17.36;54.63;99688.88;5008328;28;19917;-79
2022/02/14 07:46:14;;;;;;;;;;;;;;;17.45;54.48;99689.47;4999497;28;19920;-80
2022/02/14 07:48:41;;;;;;;;;;;;;;;17.49;54.47;99698.03;5016627;28;19913;-80
2022/02/14 07:51:07;;;;;;;;;;;;;;;17.53;54.49;99691.00;4999676;28;19921;-80
2022/02/14 07:53:32;;;;;;;;;;;;;;;17.54;54.32;99701.38;4998709;28;19909;-80
2022/02/14 07:55:57;;;;;;;;;;;;;;;17.57;54.05;99706.50;4999540;28;19976;-80
2022/02/14 07:58:22;;;;;;;;;;;;;;;17.57;54.21;99716.03;4998832;28;19913;-80
2022/02/14 08:00:48;;;;;;;;;;;;;;;17.57;54.09;99721.22;4983399;28;19921;-80
2022/02/14 08:03:13;;;;;;;;;;;;;;;17.57;54.18;99726.44;4984291;28;19918;-80
2022/02/14 08:05:38;;;;;;;;;;;;;;;17.56;54.13;99723.00;4986944;28;19914;-80
2022/02/14 08:08:04;;;;;;;;;;;;;;;17.58;54.08;99731.59;5003687;28;19909;-80
2022/02/14 08:10:29;;;;;;;;;;;;;;;17.60;53.91;99726.38;5003985;28;20027;-80
2022/02/14 08:12:54;;;;;;;;;;;;;;;17.61;54.13;99741.06;5001332;28;19957;-80
2022/02/14 08:15:19;;;;;;;;;;;;;;;17.61;54.06;99741.91;4983767;28;19976;-80
2022/02/14 08:17:45;;;;;;;;;;;;;;;17.63;54.09;99736.69;4999022;28;19924;-80
2022/02/14 08:20:10;;;;;;;;;;;;;;;17.66;53.98;99741.81;4999384;28;19964;-80
2022/02/14 08:22:35;;;;;;;;;;;;;;;17.72;53.73;99739.03;4999236;28;19910;-80
2022/02/14 08:25:01;;;;;;;;;;;;;;;17.83;53.70;99749.16;4993502;28;19952;-80
2022/02/14 08:27:26;;;;;;;;;;;;;;;18.00;52.93;99748.69;5029564;28;19917;-80
2022/02/14 08:29:51;;;;;;;;;;;;;;;18.03;52.93;99746.88;4991693;28;19917;-80
2022/02/14 08:32:17;;;;;;;;;;;;;;;18.02;53.03;99755.56;5020125;28;19909;-80
2022/02/14 08:34:42;;;;;;;;;;;;;;;18.01;53.10;99758.25;5008507;28;19931;-80
2022/02/14 08:37:08;;;;;;;;;;;;;;;17.98;53.01;99763.50;4994733;28;19918;-80
2022/02/14 08:39:33;;;;;;;;;;;;;;;17.94;53.36;99756.69;5009264;28;19916;-80
2022/02/14 08:41:59;;;;;;;;;;;;;;;17.89;53.43;99767.22;5022021;28;20352;-80
2022/02/14 08:44:24;;;;;;;;;;;;;;;17.87;53.46;99775.06;4987792;28;19913;-80
2022/02/14 08:46:49;;;;;;;;;;;;;;;17.86;53.57;99778.56;4986150;28;19920;-80
2022/02/14 08:49:14;;;;;;;;;;;;;;;17.84;53.56;99775.16;5001639;28;20004;-80
2022/02/14 08:51:40;;;;;;;;;;;;;;;17.81;53.81;99776.94;5018666;28;19918;-80
2022/02/14 08:54:05;;;;;;;;;;;;;;;17.78;53.66;99782.25;4984529;28;20004;-80
2022/02/14 08:56:30;;;;;;;;;;;;;;;17.72;53.82;99788.47;4998532;28;19910;-80
2022/02/14 08:58:56;;;;;;;;;;;;;;;17.68;54.00;99790.31;4996447;28;19917;-80
2022/02/14 09:01:21;;;;;;;;;;;;;;;17.66;54.01;99789.50;4980497;28;19921;-80
2022/02/14 09:03:46;;;;;;;;;;;;;;;17.65;53.98;99794.72;4997108;28;20399;-80
2022/02/14 09:06:12;;;;;;;;;;;;;;;17.64;54.13;99791.28;4980406;28;20283;-80
2022/02/14 09:08:37;;;;;;;;;;;;;;;17.63;53.97;99794.75;4996917;28;19932;-80
2022/02/14 09:11:03;;;;;;;;;;;;;;;17.65;54.15;99794.72;4997831;28;20402;-80
2022/02/14 09:13:29;;;;;;;;;;;;;;;17.66;54.10;99799.06;4980261;28;20291;-80
2022/02/14 09:15:54;;;;;;;;;;;;;;;17.68;54.07;99805.03;4980220;28;19922;-79
2022/02/14 09:18:19;;;;;;;;;;;;;;;17.67;54.08;99803.34;4980362;28;19964;-80
2022/02/14 09:20:45;;;;;;;;;;;;;;;17.66;54.02;99812.06;4980434;28;19913;-80
2022/02/14 09:23:12;;;;;;;;;;;;;;;17.64;54.25;99809.50;4998317;28;19914;-80
2022/02/14 09:25:38;;;;;;;;;;;;;;;17.65;54.18;99810.34;4982120;28;20434;-80
2022/02/14 09:28:03;;;;;;;;;;;;;;;17.65;53.98;99815.53;4997698;28;19914;-80
2022/02/14 09:30:29;;;;;;;;;;;;;;;17.65;54.08;99816.38;4998495;28;19916;-80
2022/02/14 09:32:54;;;;;;;;;;;;;;;17.70;53.83;99829.28;4998765;28;19933;-80
2022/02/14 09:35:28;;;;;;;;;;;;;;;17.69;53.80;99820.63;4980092;28;20290;-80
2022/02/14 09:37:58;;;;;;;;;;;;;;;17.72;53.79;99832.69;4983156;28;19971;-80
2022/02/14 09:40:24;;;;;;;;;;;;;;;17.77;53.69;99835.16;4998700;28;19909;-80
2022/02/14 09:42:52;;;;;;;;;;;;;;;17.76;53.45;99842.13;5000760;28;19932;-80
2022/02/14 09:45:19;;;;;;;;;;;;;;;17.79;53.71;99843.78;5017398;28;19924;-80
2022/02/14 09:47:45;;;;;;;;;;;;;;;17.79;53.51;99843.78;4983941;28;19913;-80
2022/02/14 09:50:10;;;;;;;;;;;;;;;17.78;53.75;99840.34;4983843;28;19975;-80
2022/02/14 09:52:35;;;;;;;;;;;;;;;17.78;53.50;99847.31;5001233;28;19909;-80
2022/02/14 09:55:00;;;;;;;;;;;;;;;17.81;53.51;99855.03;5001560;28;19921;-80
2022/02/14 09:57:26;;;;;;;;;;;;;;;17.83;53.54;99848.94;4984801;28;19917;-79
2022/02/14 09:59:51;;;;;;;;;;;;;;;17.85;53.45;99854.94;5000760;28;19924;-80
2022/02/14 10:02:26;;;;;;;;;;;;;;;17.88;53.26;99851.41;4984422;28;19920;-80
2022/02/14 10:04:58;;;;;;;;;;;;;;;17.89;53.36;99859.16;5000918;28;19913;-80
2022/02/14 10:07:36;;;;;;;;;;;;;;;17.92;53.14;99863.47;5002118;28;19914;-80
2022/02/14 10:10:13;;;;;;;;;;;;;;;17.96;53.18;99856.41;5003039;28;19913;-80
2022/02/14 10:12:42;;;;;;;;;;;;;;;17.95;53.36;99867.72;5003108;28;20370;-80
2022/02/14 10:15:08;;;;;;;;;;;;;;;17.94;53.17;99873.81;5003179;28;19909;-80
2022/02/14 10:17:37;;;;;;;;;;;;;;;17.93;53.15;99878.16;4985210;28;19918;-80
2022/02/14 10:20:03;;;;;;;;;;;;;;;17.89;53.15;99886.94;4984656;28;20271;-80
2022/02/14 10:22:29;;;;;;;;;;;;;;;17.86;53.39;99879.22;5000824;28;19909;-80
2022/02/14 10:24:54;;;;;;;;;;;;;;;17.88;53.40;99882.66;4984454;28;19963;-80
2022/02/14 10:27:30;;;;;;;;;;;;;;;17.85;53.53;99888.75;5000268;28;19909;-80
2022/02/14 10:30:05;;;;;;;;;;;;;;;17.87;53.19;99896.53;5000645;28;20004;-80
2022/02/14 10:32:30;;;;;;;;;;;;;;;17.87;53.13;99900.00;5000055;28;19909;-80
2022/02/14 10:34:55;;;;;;;;;;;;;;;17.86;53.30;99905.25;5001175;28;19910;-80
2022/02/14 10:37:36;;;;;;;;;;;;;;;17.85;53.23;99901.78;5001551;28;19928;-80
2022/02/14 10:40:02;;;;;;;;;;;;;;;17.85;53.41;99891.38;5001079;28;19917;-80
2022/02/14 10:42:33;;;;;;;;;;;;;;;17.83;53.33;99911.41;5018521;28;19948;-80
2022/02/14 10:45:11;;;;;;;;;;;;;;;17.85;53.40;99908.75;5001117;28;19933;-79
2022/02/14 10:47:46;;;;;;;;;;;;;;;17.86;53.28;99919.13;5027652;28;19909;-79
2022/02/14 10:50:15;;;;;;;;;;;;;;;17.93;52.93;99922.41;5021118;28;19924;-79
2022/02/14 10:52:43;;;;;;;;;;;;;;;17.94;52.97;99918.91;4998714;28;20371;-79
2022/02/14 10:55:10;;;;;;;;;;;;;;;17.95;52.88;99938.00;5000631;28;19909;-79
2022/02/14 10:57:36;;;;;;;;;;;;;;;17.96;53.08;99934.50;5000338;28;20260;-79
2022/02/14 11:00:12;;;;;;;;;;;;;;;17.98;52.94;99924.91;4983675;28;19917;-79
2022/02/14 11:02:38;;;;;;;;;;;;;;;18.01;52.92;99930.03;5017338;28;19909;-79
2022/02/14 11:05:05;;;;;;;;;;;;;;;18.00;52.89;99942.19;4999356;28;19916;-79
2022/02/14 11:07:30;;;;;;;;;;;;;;;18.00;52.84;99942.19;4999585;28;19910;-79
2022/02/14 11:09:56;;;;;;;;;;;;;;;18.01;52.98;99943.91;5017143;28;19909;-79
2022/02/14 11:12:23;;;;;;;;;;;;;;;18.03;52.70;99946.44;5000535;28;19912;-79
2022/02/14 11:14:56;;;;;;;;;;;;;;;17.99;52.92;99944.84;5001348;28;19909;-79
2022/02/14 11:17:23;;;;;;;;;;;;;;;17.97;53.03;99946.63;5002578;28;19917;-79
2022/02/14 11:19:52;;;;;;;;;;;;;;;17.97;52.83;99942.28;5001787;28;19952;-79
2022/02/14 11:22:17;;;;;;;;;;;;;;;17.96;52.90;99939.69;5001280;28;19909;-79
2022/02/14 11:24:43;;;;;;;;;;;;;;;17.94;52.81;99951.91;4984264;28;19913;-79
2022/02/14 11:27:13;;;;;;;;;;;;;;;17.94;53.12;99954.50;5000341;28;19973;-79
2022/02/14 11:29:57;;;;;;;;;;;;;;;17.93;53.03;99958.00;5000253;28;19917;-79
2022/02/14 11:32:26;;;;;;;;;;;;;;;17.95;52.97;99964.03;4999886;28;19916;-79
2022/02/14 11:34:56;;;;;;;;;;;;;;;17.95;52.83;99980.50;4999355;28;19920;-79
2022/02/14 11:37:22;;;;;;;;;;;;;;;17.95;52.91;99972.69;4998967;28;19914;-79
2022/02/14 11:39:50;;;;;;;;;;;;;;;17.95;52.82;99974.44;4997409;28;19898;-81
2022/02/14 11:42:16;;;;;;;;;;;;;;;17.95;52.60;99980.50;5019510;28;19910;-82
2022/02/14 11:44:42;;;;;;;;;;;;;;;17.95;52.88;99972.69;5019452;28;19917;-83
2022/02/14 11:47:08;;;;;;;;;;;;;;;17.94;52.68;99978.78;5020763;28;19901;-82
2022/02/14 11:49:37;;;;;;;;;;;;;;;17.94;52.60;99975.31;5020766;28;19916;-82
2022/02/14 11:52:05;;;;;;;;;;;;;;;17.92;52.54;99985.81;5020201;28;19980;-82
2022/02/14 11:54:35;;;;;;;;;;;;;;;17.93;52.75;99995.31;5020750;28;19921;-83
2022/02/14 11:57:28;;;;;;;;;;;;;;;17.93;52.67;99997.91;5020827;28;19969;-82
2022/02/14 12:00:16;;;;;;;;;;;;;;;17.94;52.54;99988.34;5006889;28;19917;-82
2022/02/14 12:02:54;;;;;;;;;;;;;;;17.94;52.46;99989.19;5018643;28;19992;-82
2022/02/14 12:05:40;;;;;;;;;;;;;;;17.95;52.37;99988.31;5011747;28;19916;-83
2022/02/14 12:08:11;;;;;;;;;;;;;;;17.95;52.43;99993.53;5019638;28;19893;-82
2022/02/14 12:10:44;;;;;;;;;;;;;;;17.96;52.49;99987.41;5019783;28;19918;-83
2022/02/14 12:13:13;;;;;;;;;;;;;;;17.97;52.41;99989.13;5038175;28;19993;-83
2022/02/14 12:20:51;;;;;;;;;;;;;;;17.99;52.25;99996.91;5038722;28;19908;-82
2022/02/14 12:23:31;;;;;;;;;;;;;;;17.96;52.26;99989.16;5038363;28;19898;-82
2022/02/14 12:25:57;;;;;;;;;;;;;;;17.98;52.08;99987.38;5019497;28;19904;-82
2022/02/14 12:28:23;;;;;;;;;;;;;;;17.98;52.16;99987.38;5019651;28;19909;-83
2022/02/14 12:30:49;;;;;;;;;;;;;;;17.98;52.17;99979.56;5021916;28;19893;-82
2022/02/14 12:33:21;;;;;;;;;;;;;;;17.98;52.03;99964.78;5021827;28;19904;-82
2022/02/14 12:35:47;;;;;;;;;;;;;;;17.98;51.93;99985.63;5021657;28;19901;-83
2022/02/14 12:38:13;;;;;;;;;;;;;;;18.00;51.87;99983.84;5021102;28;19925;-83
2022/02/14 12:40:59;;;;;;;;;;;;;;;18.01;51.98;99987.31;5021601;28;19901;-82
2022/02/14 12:46:37;;;;;;;;;;;;;;;18.04;51.81;99998.50;5034846;28;19989;-82
2022/02/14 12:55:35;;;;;;;;;;;;;;;18.01;51.86;100010.75;4979164;28;19929;-82
2022/02/14 12:58:30;;;;;;;;;;;;;;;18.01;51.85;100001.19;4974302;29;19914;-83
2022/02/14 13:01:16;;;;;;;;;;;;;;;18.01;51.78;100013.34;4957737;29;19945;-83
2022/02/14 13:03:52;;;;;;;;;;;;;;;18.03;51.74;100024.56;4954243;29;19919;-81
2022/02/14 13:06:17;;;;;;;;;;;;;;;18.02;52.09;100007.25;4931756;29;20432;-80
2022/02/14 13:08:46;;;;;;;;;;;;;;;18.03;51.82;99996.78;4928230;29;19952;-80
2022/02/14 13:11:11;;;;;;;;;;;;;;;18.03;51.85;99982.91;4927389;29;19922;-80
2022/02/14 13:13:39;;;;;;;;;;;;;;;18.02;51.77;99992.47;4943663;29;19915;-81
2022/02/14 13:16:07;;;;;;;;;;;;;;;18.02;51.92;99994.22;4934892;29;19922;-81
2022/02/14 13:18:38;;;;;;;;;;;;;;;18.02;51.81;99989.00;4942356;29;19914;-83
2022/02/14 13:21:03;;;;;;;;;;;;;;;18.02;51.89;100010.69;4945801;29;19910;-83
2022/02/14 13:23:31;;;;;;;;;;;;;;;18.02;52.04;100008.09;4945054;29;19903;-84
2022/02/14 13:25:56;;;;;;;;;;;;;;;18.04;52.01;100006.31;4967867;28;19925;-83
2022/02/14 13:28:22;;;;;;;;;;;;;;;18.06;52.09;100017.53;4994624;28;19910;-81
2022/02/14 13:30:54;;;;;;;;;;;;;;;18.08;52.08;100014.91;5002247;28;19918;-81
2022/02/14 13:33:24;;;;;;;;;;;;;;;18.07;52.05;100008.84;5022653;28;19913;-84
2022/02/14 13:35:50;;;;;;;;;;;;;;;18.06;52.27;100003.66;5024513;28;19901;-83
2022/02/14 13:38:16;;;;;;;;;;;;;;;18.05;52.30;100021.03;5024790;28;19901;-84
2022/02/14 13:40:45;;;;;;;;;;;;;;;18.06;52.28;100014.94;5025100;28;19932;-84
2022/02/14 13:43:28;;;;;;;;;;;;;;;18.06;52.27;100014.09;5024740;28;19916;-84
2022/02/14 13:45:57;;;;;;;;;;;;;;;18.06;52.39;100004.53;5024718;28;19992;-83
2022/02/14 13:48:24;;;;;;;;;;;;;;;18.05;52.26;100009.75;5024878;28;19920;-84
2022/02/14 13:50:51;;;;;;;;;;;;;;;18.05;52.25;100023.66;5024651;28;19940;-84
2022/02/14 13:53:20;;;;;;;;;;;;;;;18.06;52.60;100009.72;5041547;28;19902;-84
2022/02/14 13:55:59;;;;;;;;;;;;;;;18.06;52.33;100020.13;5024756;28;19908;-83
2022/02/14 13:58:28;;;;;;;;;;;;;;;18.07;52.28;100013.19;5016415;28;19960;-81
2022/02/14 14:00:53;;;;;;;;;;;;;;;18.07;52.35;100019.25;5012098;28;19909;-80
2022/02/14 14:03:22;;;;;;;;;;;;;;;18.07;52.30;100019.25;4992397;28;19913;-80
2022/02/14 14:05:48;;;;;;;;;;;;;;;18.10;52.37;100020.94;5010420;28;19915;-80
2022/02/14 14:08:30;;;;;;;;;;;;;;;18.13;52.43;100028.66;5016086;28;19956;-80
2022/02/14 14:10:56;;;;;;;;;;;;;;;18.17;52.52;100026.84;5027471;28;19914;-81
2022/02/14 14:13:36;;;;;;;;;;;;;;;18.19;52.48;100033.72;5000113;28;19920;-81
2022/02/14 14:16:01;;;;;;;;;;;;;;;18.22;52.34;100040.59;5014329;28;20021;-81
2022/02/14 14:18:26;;;;;;;;;;;;;;;18.23;52.36;100037.97;4998329;28;19917;-80
2022/02/14 14:20:51;;;;;;;;;;;;;;;18.27;52.15;100043.97;5015618;28;19924;-81
2022/02/14 14:23:17;;;;;;;;;;;;;;;18.28;52.10;100043.91;5014198;28;19956;-80
2022/02/14 14:25:42;;;;;;;;;;;;;;;18.29;52.00;100049.94;4997661;28;19913;-80
2022/02/14 14:28:07;;;;;;;;;;;;;;;18.31;52.22;100048.16;4998040;28;19935;-80
2022/02/14 14:30:32;;;;;;;;;;;;;;;18.33;52.07;100045.53;4994608;28;19917;-80
2022/02/14 14:32:59;;;;;;;;;;;;;;;18.33;51.99;100046.38;5009317;28;19919;-80
2022/02/14 14:35:25;;;;;;;;;;;;;;;18.33;52.07;100048.13;5009681;28;19909;-80
2022/02/14 14:37:51;;;;;;;;;;;;;;;18.33;52.06;100040.31;4993926;28;19925;-80